Date,TemperatureHighF,TemperatureAvgF,TemperatureLowF,DewpointHighF,DewpointAvgF,DewpointLowF,HumidityHigh,HumidityAvg,HumidityLow,PressureMaxIn,PressureMinIn,WindSpeedMaxMPH,WindSpeedAvgMPH,GustSpeedMaxMPH,PrecipitationSumIn
2013-9-1,66.1,60.2,54.9,61.7,58.3,54.6,100,94,80,29.93,29.84,18,6,21,0.00
2013-9-2,70.3,64.0,59.8,63.7,61.6,59.1,100,93,79,29.94,29.85,18,4,20,0.00
2013-9-3,67.8,61.8,57.8,61.9,59.3,57.4,99,92,76,29.98,29.89,20,6,21,0.00
2013-9-4,68.8,62.1,58.1,62.1,59.5,57.5,98,92,79,30.01,29.90,25,6,25,0.00
2013-9-5,68.0,61.6,57.3,60.4,58.1,55.4,99,89,75,29.99,29.91,22,6,24,0.00
2013-9-6,81.8,69.3,56.3,61.2,54.5,48.1,96,63,39,29.96,29.78,17,3,19,0.00
2013-9-7,70.7,67.6,64.7,58.0,51.5,49.1,76,57,48,29.81,29.78,3,1,3,0.00
2013-9-16,57.3,57.2,57.0,56.4,56.3,56.1,97,97,97,29.81,29.80,17,6,19,0.00
2013-9-17,63.6,59.5,55.9,57.3,55.4,52.1,98,87,73,29.86,29.78,26,7,26,0.00
2013-9-18,74.3,63.5,54.1,57.7,52.2,47.2,90,69,41,29.89,29.79,17,5,19,0.00
2013-9-19,86.7,65.0,55.1,61.3,53.3,48.9,88,69,34,29.83,29.70,16,2,17,0.00
2013-9-20,73.6,61.6,54.1,63.6,57.8,51.2,95,88,70,29.83,29.74,13,2,14,0.00
2013-9-21,65.5,61.3,57.7,60.4,58.1,55.0,96,90,79,29.87,29.77,16,2,16,0.51
2013-9-22,70.7,61.2,53.8,58.0,54.9,51.6,95,81,60,29.97,29.86,14,2,18,0.00
2013-9-23,80.4,65.3,57.8,62.5,57.2,52.3,91,76,49,29.99,29.90,15,1,15,0.00
2013-9-24,69.3,61.4,57.3,58.7,54.8,49.8,88,79,68,29.97,29.88,21,4,24,0.00
2013-9-25,67.0,59.6,54.7,52.0,49.7,46.1,83,70,56,29.91,29.79,16,3,22,0.00
2013-9-26,71.1,62.5,54.6,49.3,44.5,39.7,72,53,36,29.95,29.80,14,2,15,0.00
2013-9-27,79.5,65.0,56.0,51.1,43.4,36.1,76,47,28,30.07,29.95,12,1,14,0.00
2013-9-28,80.7,63.6,55.3,58.0,51.4,40.7,90,68,26,30.05,29.96,14,2,16,0.00
2013-9-29,74.3,63.9,56.3,63.1,58.8,53.7,94,84,65,30.08,30.01,13,1,16,0.00
2013-9-30,68.4,63.2,57.9,63.5,59.2,43.4,96,88,55,30.04,29.94,13,2,14,0.00